createdAt,value
2022-11-25T00:00:00.144Z,998.66
2022-11-25T00:05:00.099Z,998.53
2022-11-25T00:10:00.147Z,998.62
2022-11-25T00:15:00.161Z,998.56
2022-11-25T00:20:00.112Z,998.49
2022-11-25T00:25:00.093Z,998.6
2022-11-25T00:30:00.121Z,998.44
2022-11-25T00:35:00.136Z,998.44
2022-11-25T00:40:00.094Z,998.38
2022-11-25T00:45:00.120Z,998.39
2022-11-25T00:50:00.091Z,998.37
2022-11-25T00:55:00.128Z,998.47
2022-11-25T01:00:00.176Z,998.44
2022-11-25T01:05:00.164Z,998.52
2022-11-25T01:10:00.123Z,998.49
2022-11-25T01:15:00.145Z,998.52
2022-11-25T01:20:00.117Z,998.61
2022-11-25T01:25:00.098Z,998.59
2022-11-25T01:30:00.148Z,998.57
2022-11-25T01:35:00.125Z,998.57
2022-11-25T01:40:00.096Z,998.55
2022-11-25T01:45:00.095Z,998.5
2022-11-25T01:50:00.122Z,998.49
2022-11-25T01:55:00.133Z,998.48
2022-11-25T02:00:00.164Z,998.55
2022-11-25T02:05:00.115Z,998.5
2022-11-25T02:10:00.121Z,998.55
2022-11-25T02:15:00.144Z,998.51
2022-11-25T02:20:00.117Z,998.57
2022-11-25T02:25:00.094Z,998.51
2022-11-25T02:30:00.114Z,998.53
2022-11-25T02:35:00.145Z,998.56
2022-11-25T02:40:00.112Z,998.58
2022-11-25T02:45:00.115Z,998.58
2022-11-25T02:50:00.096Z,998.56
2022-11-25T02:55:00.148Z,998.49
2022-11-25T03:00:00.158Z,998.43
2022-11-25T03:05:00.130Z,998.3
2022-11-25T03:10:00.097Z,998.53
2022-11-25T03:15:00.137Z,998.45
2022-11-25T03:20:00.131Z,998.59
2022-11-25T03:25:00.134Z,998.65
2022-11-25T03:30:00.125Z,998.71
2022-11-25T03:35:00.161Z,998.57
2022-11-25T03:40:00.135Z,998.57
2022-11-25T03:45:00.128Z,998.69
2022-11-25T03:50:00.143Z,998.62
2022-11-25T03:55:00.142Z,998.59
2022-11-25T04:00:00.185Z,998.67
2022-11-25T04:05:00.119Z,998.62
2022-11-25T04:10:00.149Z,998.57
2022-11-25T04:15:00.137Z,998.45
2022-11-25T04:20:00.111Z,998.67
2022-11-25T04:25:00.123Z,998.07
2022-11-25T04:30:00.125Z,998.08
2022-11-25T04:35:00.128Z,998.19
2022-11-25T04:40:00.109Z,998.26
2022-11-25T04:45:24.536Z,998.19
2022-11-25T04:50:00.108Z,998.2
2022-11-25T04:55:00.181Z,998.24
2022-11-25T05:00:00.174Z,998.23
2022-11-25T05:05:00.111Z,998.21
2022-11-25T05:10:00.095Z,998.23
2022-11-25T05:15:00.153Z,998.2
2022-11-25T05:20:00.119Z,998.08
2022-11-25T05:25:00.126Z,998.19
2022-11-25T05:30:00.159Z,998.19
2022-11-25T05:35:00.164Z,998.23
2022-11-25T05:40:00.133Z,998.12
2022-11-25T05:45:00.127Z,998.19
2022-11-25T05:50:00.121Z,998.23
2022-11-25T05:55:00.224Z,998.3
2022-11-25T06:00:00.185Z,998.25
2022-11-25T06:05:00.133Z,998.32
2022-11-25T06:10:03.003Z,998.27
2022-11-25T06:15:00.164Z,998.23
2022-11-25T06:20:00.568Z,998.27
2022-11-25T06:25:03.487Z,998.32
2022-11-25T06:30:00.154Z,998.33
2022-11-25T06:35:00.121Z,998.44
2022-11-25T06:40:00.111Z,998.5
2022-11-25T06:45:00.119Z,998.4
2022-11-25T06:50:00.122Z,998.38
2022-11-25T06:55:00.132Z,998.44
2022-11-25T07:00:00.203Z,998.52
2022-11-25T07:05:00.098Z,998.52
2022-11-25T07:10:00.098Z,998.55
2022-11-25T07:15:00.152Z,998.57
2022-11-25T07:20:00.144Z,998.55
2022-11-25T07:25:00.098Z,998.6
2022-11-25T07:35:00.150Z,998.72
2022-11-25T07:40:00.121Z,998.8
2022-11-25T07:45:00.107Z,998.87
2022-11-25T07:50:00.106Z,998.87
2022-11-25T07:55:00.152Z,998.83
2022-11-25T08:00:00.232Z,998.8
2022-11-25T08:05:00.096Z,998.86
2022-11-25T08:10:00.120Z,998.94
2022-11-25T08:15:00.139Z,998.85
2022-11-25T08:20:00.126Z,998.93
2022-11-25T08:25:00.101Z,998.95
2022-11-25T08:30:00.159Z,998.92
2022-11-25T08:35:00.149Z,998.96
2022-11-25T08:40:00.655Z,999.08
2022-11-25T08:45:00.098Z,998.98
2022-11-25T08:50:00.119Z,999
2022-11-25T08:55:00.239Z,998.98
2022-11-25T09:00:00.127Z,998.9
2022-11-25T09:05:00.144Z,998.97
2022-11-25T09:10:00.123Z,999.05
2022-11-25T09:15:00.147Z,999.04
2022-11-25T09:20:00.133Z,998.99
2022-11-25T09:25:00.094Z,999.19
2022-11-25T09:30:00.225Z,999.1
2022-11-25T09:35:00.150Z,999.16
2022-11-25T09:40:00.096Z,999.22
2022-11-25T09:45:00.098Z,999.08
2022-11-25T09:50:00.133Z,999.15
2022-11-25T09:55:00.169Z,999.16
2022-11-25T10:00:00.212Z,999.22
2022-11-25T10:05:00.123Z,999.11
2022-11-25T10:10:00.145Z,999.06
2022-11-25T10:15:00.119Z,999.1
2022-11-25T10:20:00.125Z,999.02
2022-11-25T10:25:00.125Z,999.1
2022-11-25T10:30:00.147Z,999.17
2022-11-25T10:35:00.125Z,999.13
2022-11-25T10:40:00.130Z,999.13
2022-11-25T10:45:00.145Z,999.14
2022-11-25T10:50:00.129Z,999.11
2022-11-25T10:55:00.151Z,999.5
2022-11-25T11:00:00.220Z,999.48
2022-11-25T11:05:00.114Z,999.44
2022-11-25T11:15:00.226Z,999.38
2022-11-25T11:20:00.176Z,999.33
2022-11-25T11:25:00.156Z,999.32
2022-11-25T11:30:00.192Z,999.35
2022-11-25T11:35:00.180Z,999.32
2022-11-25T11:40:00.288Z,998.83
2022-11-25T11:45:00.224Z,998.75
2022-11-25T11:50:00.181Z,999.18
2022-11-25T11:55:00.174Z,999.17
2022-11-25T12:00:00.184Z,998.67
2022-11-25T12:05:00.126Z,998.75
2022-11-25T12:10:00.188Z,998.72
2022-11-25T12:15:00.195Z,998.67
2022-11-25T12:20:00.161Z,998.65
2022-11-25T12:25:00.152Z,998.77
2022-11-25T12:30:00.136Z,998.59
2022-11-25T12:35:00.251Z,998.6
2022-11-25T12:40:00.205Z,998.69
2022-11-25T12:45:00.224Z,998.74
2022-11-25T12:50:00.193Z,998.72
2022-11-25T12:55:00.160Z,998.67
2022-11-25T13:00:17.833Z,998.7
2022-11-25T13:05:13.060Z,998.78
2022-11-25T13:10:00.159Z,998.74
2022-11-25T13:15:00.871Z,998.82
2022-11-25T13:20:00.157Z,998.8
2022-11-25T13:25:00.167Z,998.87
2022-11-25T13:30:00.167Z,998.86
2022-11-25T13:35:00.180Z,998.84
2022-11-25T13:40:00.191Z,998.98
2022-11-25T13:45:00.198Z,998.93
2022-11-25T13:50:00.201Z,999.12
2022-11-25T13:55:00.171Z,999.19
2022-11-25T14:00:00.224Z,999.22
2022-11-25T14:05:00.143Z,999.24
2022-11-25T14:10:00.149Z,999.37
2022-11-25T14:15:00.200Z,999.37
2022-11-25T14:20:00.466Z,999.43
2022-11-25T14:25:00.143Z,999.48
2022-11-25T14:30:00.192Z,999.58
2022-11-25T14:35:00.271Z,999.58
2022-11-25T14:40:00.146Z,999.74
2022-11-25T14:45:00.210Z,999.78
2022-11-25T14:50:19.209Z,999.93
2022-11-25T14:55:00.171Z,999.88
2022-11-25T15:00:00.193Z,1000.01
2022-11-25T15:05:00.156Z,1000.03
2022-11-25T15:10:00.235Z,999.99
2022-11-25T15:15:00.243Z,1000.01
2022-11-25T15:20:00.184Z,1000.1
2022-11-25T15:25:00.176Z,1000.17
2022-11-25T15:30:00.157Z,1000.18
2022-11-25T15:35:00.189Z,1000.26
2022-11-25T15:40:00.349Z,1000.27
2022-11-25T15:45:03.690Z,1000.34
2022-11-25T15:50:00.298Z,1000.3
2022-11-25T15:55:00.175Z,1000.32
2022-11-25T16:00:00.406Z,1000.35
2022-11-25T16:05:03.397Z,1000.37
2022-11-25T16:10:00.228Z,1000.45
2022-11-25T16:15:00.196Z,1000.41
2022-11-25T16:20:00.147Z,1000.44
2022-11-25T16:25:02.565Z,1000.44
2022-11-25T16:30:00.157Z,1000.44
2022-11-25T16:35:00.200Z,1000.55
2022-11-25T16:40:00.169Z,1000.57
2022-11-25T16:45:00.179Z,1000.62
2022-11-25T16:50:00.160Z,1000.68
2022-11-25T16:55:00.187Z,1000.66
2022-11-25T17:00:00.155Z,1000.74
2022-11-25T17:05:00.151Z,1000.77
2022-11-25T17:10:00.222Z,1000.81
2022-11-25T17:15:00.502Z,1000.84
2022-11-25T17:20:00.182Z,1000.88
2022-11-25T17:25:00.175Z,1000.83
2022-11-25T17:30:00.214Z,1000.89
2022-11-25T17:35:00.211Z,1001.02
2022-11-25T17:40:00.210Z,1001.2
2022-11-25T17:45:00.199Z,1001.19
2022-11-25T17:50:00.149Z,1001.29
2022-11-25T17:55:00.194Z,1001.33
2022-11-25T18:00:00.196Z,1001.29
2022-11-25T18:05:00.167Z,1001.46
2022-11-25T18:10:00.218Z,1001.47
2022-11-25T18:15:00.218Z,1001.57
2022-11-25T18:20:00.189Z,1001.62
2022-11-25T18:25:02.147Z,1001.61
2022-11-25T18:30:00.190Z,1001.72
2022-11-25T18:35:00.293Z,1001.85
2022-11-25T18:40:00.181Z,1001.88
2022-11-25T18:45:00.193Z,1001.87
2022-11-25T18:50:00.215Z,1001.96
2022-11-25T18:55:00.178Z,1001.98
2022-11-25T19:00:24.737Z,1002.1
2022-11-25T19:05:00.180Z,1002.05
2022-11-25T19:10:00.142Z,1002.11
2022-11-25T19:15:00.228Z,1002.25
2022-11-25T19:20:00.274Z,1002.28
2022-11-25T19:25:00.160Z,1002.3
2022-11-25T19:30:00.195Z,1002.41
2022-11-25T19:35:00.220Z,1002.53
2022-11-25T19:40:00.185Z,1002.75
2022-11-25T19:45:00.138Z,1002.79
2022-11-25T19:50:00.166Z,1002.8
2022-11-25T19:55:00.174Z,1002.86
2022-11-25T20:00:00.200Z,1002.96
2022-11-25T20:05:00.180Z,1003.03
2022-11-25T20:10:00.205Z,1003.08
2022-11-25T20:15:00.208Z,1003.12
2022-11-25T20:20:00.166Z,1003.18
2022-11-25T20:25:00.157Z,1003.23
2022-11-25T20:30:00.211Z,1003.35
2022-11-25T20:35:00.182Z,1003.34
2022-11-25T20:40:00.169Z,1003.38
2022-11-25T20:45:00.170Z,1003.42
2022-11-25T20:50:00.173Z,1003.46
2022-11-25T20:55:00.212Z,1003.54
2022-11-25T21:00:00.161Z,1003.58
2022-11-25T21:05:00.166Z,1003.62
2022-11-25T21:10:00.177Z,1003.74
2022-11-25T21:15:00.176Z,1003.85
2022-11-25T21:20:00.145Z,1003.9
2022-11-25T21:25:00.216Z,1004.49
2022-11-25T21:30:00.244Z,1004.46
2022-11-25T21:35:00.219Z,1004.59
2022-11-25T21:40:00.217Z,1004.65
2022-11-25T21:45:00.164Z,1004.71
2022-11-25T21:50:00.145Z,1004.73
2022-11-25T21:55:00.192Z,1004.79
2022-11-25T22:00:00.235Z,1004.8
2022-11-25T22:05:00.217Z,1004.9
2022-11-25T22:10:00.152Z,1004.93
2022-11-25T22:15:00.186Z,1005.03
2022-11-25T22:20:00.272Z,1005
2022-11-25T22:25:00.192Z,1005.16
2022-11-25T22:30:00.265Z,1005.2
2022-11-25T22:35:00.323Z,1005.28
2022-11-25T22:40:00.149Z,1005.33
2022-11-25T22:45:00.265Z,1005.46
2022-11-25T22:50:00.306Z,1005.42
2022-11-25T22:55:00.298Z,1005.41
2022-11-25T23:00:00.283Z,1005.46
2022-11-25T23:05:00.345Z,1005.57
2022-11-25T23:10:00.199Z,1005.64
2022-11-25T23:15:00.199Z,1005.61
2022-11-25T23:20:00.376Z,1005.73
2022-11-25T23:25:00.405Z,1005.73
2022-11-25T23:30:00.260Z,1005.69
2022-11-25T23:35:00.389Z,1005.79
2022-11-25T23:40:00.328Z,1005.73
2022-11-25T23:45:00.141Z,1005.92
2022-11-25T23:50:00.208Z,1005.98
2022-11-25T23:55:00.185Z,1005.97
